sensor_id;sensor_type;location;lat;lon;timestamp;pressure;altitude;pressure_sealevel;temperature;humidity
53719;BME280;39616;48.872;9.390;2023-03-04T00:00:38;98886.50;;;-1.50;100.00
53719;BME280;39616;48.872;9.390;2023-03-04T00:03:14;98897.53;;;-1.53;100.00
53719;BME280;39616;48.872;9.390;2023-03-04T00:05:45;98896.50;;;-1.52;100.00
53719;BME280;39616;48.872;9.390;2023-03-04T00:08:16;98899.38;;;-1.54;100.00
53719;BME280;39616;48.872;9.390;2023-03-04T00:10:46;98901.41;;;-1.56;100.00
53719;BME280;39616;48.872;9.390;2023-03-04T00:13:16;98904.69;;;-1.60;100.00
53719;BME280;39616;48.872;9.390;2023-03-04T00:15:49;98896.94;;;-1.62;100.00
53719;BME280;39616;48.872;9.390;2023-03-04T00:18:20;98903.88;;;-1.61;100.00
53719;BME280;39616;48.872;9.390;2023-03-04T00:20:50;98900.00;;;-1.58;100.00
53719;BME280;39616;48.872;9.390;2023-03-04T00:23:20;98901.00;;;-1.59;100.00
53719;BME280;39616;48.872;9.390;2023-03-04T00:25:51;98896.53;;;-1.65;100.00
53719;BME280;39616;48.872;9.390;2023-03-04T00:28:21;98901.22;;;-1.67;100.00
53719;BME280;39616;48.872;9.390;2023-03-04T00:30:51;98896.91;;;-1.68;100.00
53719;BME280;39616;48.872;9.390;2023-03-04T00:33:22;98899.38;;;-1.67;100.00
53719;BME280;39616;48.872;9.390;2023-03-04T00:35:52;98903.25;;;-1.83;100.00
53719;BME280;39616;48.872;9.390;2023-03-04T00:38:22;98901.81;;;-1.79;100.00
53719;BME280;39616;48.872;9.390;2023-03-04T00:40:53;98904.25;;;-1.77;100.00
53719;BME280;39616;48.872;9.390;2023-03-04T00:43:23;98897.53;;;-1.80;100.00
53719;BME280;39616;48.872;9.390;2023-03-04T00:45:54;98899.38;;;-1.80;100.00
53719;BME280;39616;48.872;9.390;2023-03-04T00:48:24;98899.78;;;-1.83;100.00
53719;BME280;39616;48.872;9.390;2023-03-04T00:50:55;98897.09;;;-1.83;100.00
53719;BME280;39616;48.872;9.390;2023-03-04T00:53:25;98897.09;;;-1.83;100.00
53719;BME280;39616;48.872;9.390;2023-03-04T00:55:55;98901.19;;;-1.87;100.00
53719;BME280;39616;48.872;9.390;2023-03-04T00:58:25;98900.16;;;-1.86;100.00
53719;BME280;39616;48.872;9.390;2023-03-04T01:00:56;98897.69;;;-1.88;100.00
53719;BME280;39616;48.872;9.390;2023-03-04T01:03:26;98895.25;;;-1.89;100.00
53719;BME280;39616;48.872;9.390;2023-03-04T01:06:00;98890.97;;;-1.90;100.00
53719;BME280;39616;48.872;9.390;2023-03-04T01:08:31;98888.69;;;-1.93;100.00
53719;BME280;39616;48.872;9.390;2023-03-04T01:11:01;98891.97;;;-1.98;100.00
53719;BME280;39616;48.872;9.390;2023-03-04T01:13:32;98883.38;;;-2.00;100.00
53719;BME280;39616;48.872;9.390;2023-03-04T01:16:03;98881.72;;;-2.08;100.00
53719;BME280;39616;48.872;9.390;2023-03-04T01:18:34;98878.44;;;-2.16;100.00
53719;BME280;39616;48.872;9.390;2023-03-04T01:21:05;98886.38;;;-2.23;100.00
53719;BME280;39616;48.872;9.390;2023-03-04T01:23:35;98878.41;;;-2.23;100.00
53719;BME280;39616;48.872;9.390;2023-03-04T01:26:05;98880.03;;;-2.22;100.00
53719;BME280;39616;48.872;9.390;2023-03-04T01:28:35;98878.84;;;-2.20;100.00
53719;BME280;39616;48.872;9.390;2023-03-04T01:31:06;98884.16;;;-2.20;100.00
53719;BME280;39616;48.872;9.390;2023-03-04T01:33:36;98881.91;;;-2.16;100.00
53719;BME280;39616;48.872;9.390;2023-03-04T01:36:06;98878.44;;;-2.16;100.00
53719;BME280;39616;48.872;9.390;2023-03-04T01:38:37;98871.28;;;-2.16;100.00
53719;BME280;39616;48.872;9.390;2023-03-04T01:41:07;98878.00;;;-2.27;100.00
53719;BME280;39616;48.872;9.390;2023-03-04T01:43:38;98877.78;;;-2.32;100.00
53719;BME280;39616;48.872;9.390;2023-03-04T01:46:10;98878.78;;;-2.33;100.00
53719;BME280;39616;48.872;9.390;2023-03-04T01:48:42;98876.13;;;-2.33;100.00
53719;BME280;39616;48.872;9.390;2023-03-04T01:51:15;98874.09;;;-2.31;100.00
53719;BME280;39616;48.872;9.390;2023-03-04T01:53:47;98881.06;;;-2.30;100.00
53719;BME280;39616;48.872;9.390;2023-03-04T01:56:23;98877.38;;;-2.29;100.00
53719;BME280;39616;48.872;9.390;2023-03-04T01:59:20;98876.75;;;-2.31;100.00
53719;BME280;39616;48.872;9.390;2023-03-04T02:01:52;98878.81;;;-2.26;100.00
53719;BME280;39616;48.872;9.390;2023-03-04T02:04:25;98873.06;;;-2.30;100.00
53719;BME280;39616;48.872;9.390;2023-03-04T02:06:58;98881.22;;;-2.38;100.00
53719;BME280;39616;48.872;9.390;2023-03-04T02:09:30;98873.88;;;-2.42;100.00
53719;BME280;39616;48.872;9.390;2023-03-04T02:12:01;98875.03;;;-2.52;100.00
53719;BME280;39616;48.872;9.390;2023-03-04T02:14:31;98877.91;;;-2.53;100.00
53719;BME280;39616;48.872;9.390;2023-03-04T02:17:01;98874.03;;;-2.57;100.00
53719;BME280;39616;48.872;9.390;2023-03-04T02:19:39;98868.69;;;-2.64;100.00
53719;BME280;39616;48.872;9.390;2023-03-04T02:22:11;98862.94;;;-2.68;100.00
53719;BME280;39616;48.872;9.390;2023-03-04T02:24:49;98871.25;;;-2.77;100.00
53719;BME280;39616;48.872;9.390;2023-03-04T02:27:22;98874.31;;;-2.80;100.00
53719;BME280;39616;48.872;9.390;2023-03-04T02:29:52;98861.25;;;-2.82;100.00
53719;BME280;39616;48.872;9.390;2023-03-04T02:32:22;98873.06;;;-2.84;100.00
53719;BME280;39616;48.872;9.390;2023-03-04T02:34:53;98867.97;;;-2.86;100.00
53719;BME280;39616;48.872;9.390;2023-03-04T02:37:25;98864.72;;;-2.81;100.00
53719;BME280;39616;48.872;9.390;2023-03-04T02:39:55;98866.34;;;-2.80;100.00
53719;BME280;39616;48.872;9.390;2023-03-04T02:42:25;98862.06;;;-2.81;100.00
53719;BME280;39616;48.872;9.390;2023-03-04T02:44:59;98867.56;;;-2.83;100.00
53719;BME280;39616;48.872;9.390;2023-03-04T02:47:30;98865.53;;;-2.81;100.00
53719;BME280;39616;48.872;9.390;2023-03-04T02:50:00;98871.25;;;-2.77;100.00
53719;BME280;39616;48.872;9.390;2023-03-04T02:52:30;98872.09;;;-2.70;100.00
53719;BME280;39616;48.872;9.390;2023-03-04T02:55:01;98867.00;;;-2.72;100.00
53719;BME280;39616;48.872;9.390;2023-03-04T02:57:31;98872.88;;;-2.76;100.00
53719;BME280;39616;48.872;9.390;2023-03-04T03:00:01;98882.69;;;-2.77;100.00
53719;BME280;39616;48.872;9.390;2023-03-04T03:02:32;98875.16;;;-2.80;100.00
53719;BME280;39616;48.872;9.390;2023-03-04T03:05:02;98883.94;;;-2.79;100.00
53719;BME280;39616;48.872;9.390;2023-03-04T03:07:33;98878.56;;;-2.86;100.00
53719;BME280;39616;48.872;9.390;2023-03-04T03:10:04;98876.75;;;-2.85;100.00
53719;BME280;39616;48.872;9.390;2023-03-04T03:12:35;98870.78;;;-2.94;100.00
53719;BME280;39616;48.872;9.390;2023-03-04T03:15:06;98873.44;;;-2.94;100.00
53719;BME280;39616;48.872;9.390;2023-03-04T03:17:36;98879.94;;;-2.97;100.00
53719;BME280;39616;48.872;9.390;2023-03-04T03:20:07;98876.03;;;-3.01;100.00
53719;BME280;39616;48.872;9.390;2023-03-04T03:22:39;98865.00;;;-3.04;100.00
53719;BME280;39616;48.872;9.390;2023-03-04T03:25:11;98868.25;;;-3.09;100.00
53719;BME280;39616;48.872;9.390;2023-03-04T03:27:42;98878.66;;;-3.07;100.00
53719;BME280;39616;48.872;9.390;2023-03-04T03:30:14;98869.88;;;-3.08;100.00
53719;BME280;39616;48.872;9.390;2023-03-04T03:32:44;98870.69;;;-3.07;100.00
53719;BME280;39616;48.872;9.390;2023-03-04T03:35:15;98868.00;;;-3.14;100.00
53719;BME280;39616;48.872;9.390;2023-03-04T03:37:45;98858.34;;;-3.22;100.00
53719;BME280;39616;48.872;9.390;2023-03-04T03:40:17;98869.22;;;-3.17;100.00
53719;BME280;39616;48.872;9.390;2023-03-04T03:42:48;98862.09;;;-3.16;100.00
53719;BME280;39616;48.872;9.390;2023-03-04T03:45:18;98873.25;;;-3.21;100.00
53719;BME280;39616;48.872;9.390;2023-03-04T03:47:48;98856.31;;;-3.26;100.00
53719;BME280;39616;48.872;9.390;2023-03-04T03:50:19;98863.81;;;-3.30;100.00
53719;BME280;39616;48.872;9.390;2023-03-04T03:52:49;98860.09;;;-3.35;100.00
53719;BME280;39616;48.872;9.390;2023-03-04T03:55:20;98864.34;;;-3.41;100.00
53719;BME280;39616;48.872;9.390;2023-03-04T03:57:50;98859.88;;;-3.41;100.00
53719;BME280;39616;48.872;9.390;2023-03-04T04:00:21;98870.91;;;-3.37;100.00
53719;BME280;39616;48.872;9.390;2023-03-04T04:02:53;98868.50;;;-3.32;100.00
53719;BME280;39616;48.872;9.390;2023-03-04T04:05:25;98867.66;;;-3.32;100.00
53719;BME280;39616;48.872;9.390;2023-03-04T04:07:55;98869.66;;;-3.41;100.00
53719;BME280;39616;48.872;9.390;2023-03-04T04:10:25;98875.13;;;-3.49;100.00
53719;BME280;39616;48.872;9.390;2023-03-04T04:12:56;98872.19;;;-3.54;100.00
53719;BME280;39616;48.872;9.390;2023-03-04T04:15:26;98876.91;;;-3.56;100.00
53719;BME280;39616;48.872;9.390;2023-03-04T04:17:56;98872.72;;;-3.66;100.00
53719;BME280;39616;48.872;9.390;2023-03-04T04:20:26;98882.13;;;-3.63;100.00
53719;BME280;39616;48.872;9.390;2023-03-04T04:22:57;98882.75;;;-3.61;100.00
53719;BME280;39616;48.872;9.390;2023-03-04T04:25:27;98882.31;;;-3.65;100.00
53719;BME280;39616;48.872;9.390;2023-03-04T04:27:58;98885.41;;;-3.61;100.00
53719;BME280;39616;48.872;9.390;2023-03-04T04:30:28;98875.81;;;-3.62;100.00
53719;BME280;39616;48.872;9.390;2023-03-04T04:32:59;98885.97;;;-3.66;100.00
53719;BME280;39616;48.872;9.390;2023-03-04T04:35:32;98885.41;;;-3.61;100.00
53719;BME280;39616;48.872;9.390;2023-03-04T04:38:04;98883.97;;;-3.63;100.00
53719;BME280;39616;48.872;9.390;2023-03-04T04:40:35;98883.91;;;-3.70;100.00
53719;BME280;39616;48.872;9.390;2023-03-04T04:43:06;98881.03;;;-3.75;100.00
53719;BME280;39616;48.872;9.390;2023-03-04T04:45:36;98878.94;;;-3.80;100.00
53719;BME280;39616;48.872;9.390;2023-03-04T04:48:06;98877.72;;;-3.77;100.00
53719;BME280;39616;48.872;9.390;2023-03-04T04:50:38;98883.47;;;-3.74;100.00
53719;BME280;39616;48.872;9.390;2023-03-04T04:53:11;98882.22;;;-3.78;100.00
53719;BME280;39616;48.872;9.390;2023-03-04T04:55:42;98885.81;;;-3.85;100.00
53719;BME280;39616;48.872;9.390;2023-03-04T04:58:12;98876.41;;;-3.88;100.00
53719;BME280;39616;48.872;9.390;2023-03-04T05:00:42;98882.47;;;-3.94;100.00
53719;BME280;39616;48.872;9.390;2023-03-04T05:03:13;98878.75;;;-4.00;100.00
53719;BME280;39616;48.872;9.390;2023-03-04T05:05:43;98884.06;;;-4.00;100.00
53719;BME280;39616;48.872;9.390;2023-03-04T05:08:13;98894.84;;;-4.01;100.00
53719;BME280;39616;48.872;9.390;2023-03-04T05:10:44;98894.41;;;-4.05;100.00
53719;BME280;39616;48.872;9.390;2023-03-04T05:13:14;98897.78;;;-4.11;100.00
53719;BME280;39616;48.872;9.390;2023-03-04T05:15:45;98896.78;;;-4.10;100.00
53719;BME280;39616;48.872;9.390;2023-03-04T05:18:15;98898.53;;;-4.17;100.00
53719;BME280;39616;48.872;9.390;2023-03-04T05:20:54;98901.09;;;-4.24;100.00
53719;BME280;39616;48.872;9.390;2023-03-04T05:23:26;98899.91;;;-4.21;100.00
53719;BME280;39616;48.872;9.390;2023-03-04T05:25:57;98905.41;;;-4.23;100.00
53719;BME280;39616;48.872;9.390;2023-03-04T05:28:27;98902.19;;;-4.18;100.00
53719;BME280;39616;48.872;9.390;2023-03-04T05:30:58;98908.31;;;-4.18;100.00
53719;BME280;39616;48.872;9.390;2023-03-04T05:33:28;98906.94;;;-4.14;100.00
53719;BME280;39616;48.872;9.390;2023-03-04T05:36:00;98911.84;;;-4.10;100.00
53719;BME280;39616;48.872;9.390;2023-03-04T05:38:30;98915.16;;;-4.08;100.00
53719;BME280;39616;48.872;9.390;2023-03-04T05:41:03;98907.75;;;-4.13;100.00
53719;BME280;39616;48.872;9.390;2023-03-04T05:43:34;98913.03;;;-4.13;100.00
53719;BME280;39616;48.872;9.390;2023-03-04T05:46:05;98906.47;;;-4.17;100.00
53719;BME280;39616;48.872;9.390;2023-03-04T05:48:35;98912.34;;;-4.22;100.00
53719;BME280;39616;48.872;9.390;2023-03-04T05:51:05;98916.38;;;-4.26;100.00
53719;BME280;39616;48.872;9.390;2023-03-04T05:53:36;98914.56;;;-4.25;100.00
53719;BME280;39616;48.872;9.390;2023-03-04T05:56:08;98912.53;;;-4.23;100.00
53719;BME280;39616;48.872;9.390;2023-03-04T05:58:39;98918.47;;;-4.21;100.00
53719;BME280;39616;48.872;9.390;2023-03-04T06:01:10;98908.50;;;-4.19;100.00
53719;BME280;39616;48.872;9.390;2023-03-04T06:03:40;98915.06;;;-4.15;100.00
53719;BME280;39616;48.872;9.390;2023-03-04T06:06:12;98913.03;;;-4.13;100.00
53719;BME280;39616;48.872;9.390;2023-03-04T06:08:42;98910.31;;;-4.05;100.00
53719;BME280;39616;48.872;9.390;2023-03-04T06:11:13;98912.38;;;-4.00;100.00
53719;BME280;39616;48.872;9.390;2023-03-04T06:13:43;98911.94;;;-4.04;100.00
53719;BME280;39616;48.872;9.390;2023-03-04T06:16:13;98915.03;;;-4.00;100.00
53719;BME280;39616;48.872;9.390;2023-03-04T06:18:43;98922.09;;;-3.86;100.00
53719;BME280;39616;48.872;9.390;2023-03-04T06:21:14;98927.13;;;-3.70;100.00
53719;BME280;39616;48.872;9.390;2023-03-04T06:23:44;98928.31;;;-3.51;100.00
53719;BME280;39616;48.872;9.390;2023-03-04T06:26:16;98928.63;;;-3.39;100.00
53719;BME280;39616;48.872;9.390;2023-03-04T06:28:46;98938.66;;;-3.34;100.00
53719;BME280;39616;48.872;9.390;2023-03-04T06:31:16;98941.44;;;-3.43;100.00
53719;BME280;39616;48.872;9.390;2023-03-04T06:33:47;98942.53;;;-3.37;100.00
53719;BME280;39616;48.872;9.390;2023-03-04T06:36:17;98956.66;;;-3.30;100.00
53719;BME280;39616;48.872;9.390;2023-03-04T06:38:47;98947.78;;;-3.16;100.00
53719;BME280;39616;48.872;9.390;2023-03-04T06:41:18;98954.03;;;-3.02;100.00
53719;BME280;39616;48.872;9.390;2023-03-04T06:43:48;98960.03;;;-2.86;100.00
53719;BME280;39616;48.872;9.390;2023-03-04T06:46:18;98955.22;;;-2.70;100.00
53719;BME280;39616;48.872;9.390;2023-03-04T06:48:48;98952.84;;;-2.58;100.00
53719;BME280;39616;48.872;9.390;2023-03-04T06:51:19;98959.47;;;-2.40;100.00
53719;BME280;39616;48.872;9.390;2023-03-04T06:53:49;98962.59;;;-2.30;100.00
53719;BME280;39616;48.872;9.390;2023-03-04T06:56:20;98962.63;;;-2.24;100.00
53719;BME280;39616;48.872;9.390;2023-03-04T06:58:50;98955.88;;;-2.20;100.00
53719;BME280;39616;48.872;9.390;2023-03-04T07:01:23;98964.84;;;-2.27;100.00
53719;BME280;39616;48.872;9.390;2023-03-04T07:03:54;98953.22;;;-2.20;100.00
53719;BME280;39616;48.872;9.390;2023-03-04T07:06:26;98954.47;;;-2.15;100.00
53719;BME280;39616;48.872;9.390;2023-03-04T07:08:57;98957.13;;;-2.15;100.00
53719;BME280;39616;48.872;9.390;2023-03-04T07:11:27;98956.91;;;-2.21;100.00
53719;BME280;39616;48.872;9.390;2023-03-04T07:13:57;98958.75;;;-2.14;100.00
53719;BME280;39616;48.872;9.390;2023-03-04T07:16:28;98963.31;;;-2.02;100.00
53719;BME280;39616;48.872;9.390;2023-03-04T07:18:58;98978.25;;;-2.01;100.00
53719;BME280;39616;48.872;9.390;2023-03-04T07:21:29;98976.19;;;-2.05;100.00
53719;BME280;39616;48.872;9.390;2023-03-04T07:23:59;98977.44;;;-1.95;100.00
53719;BME280;39616;48.872;9.390;2023-03-04T07:26:29;98981.31;;;-1.97;100.00
53719;BME280;39616;48.872;9.390;2023-03-04T07:29:00;98984.59;;;-1.88;100.00
53719;BME280;39616;48.872;9.390;2023-03-04T07:31:32;98988.09;;;-1.81;100.00
53719;BME280;39616;48.872;9.390;2023-03-04T07:34:05;98979.72;;;-1.85;100.00
53719;BME280;39616;48.872;9.390;2023-03-04T07:36:36;98987.69;;;-1.85;100.00
53719;BME280;39616;48.872;9.390;2023-03-04T07:39:07;98988.91;;;-1.81;100.00
53719;BME280;39616;48.872;9.390;2023-03-04T07:41:38;98990.59;;;-1.80;100.00
53719;BME280;39616;48.872;9.390;2023-03-04T07:44:10;99000.03;;;-1.64;100.00
53719;BME280;39616;48.872;9.390;2023-03-04T07:46:42;98994.50;;;-1.56;100.00
53719;BME280;39616;48.872;9.390;2023-03-04T07:49:12;98999.22;;;-1.44;100.00
53719;BME280;39616;48.872;9.390;2023-03-04T07:51:43;99002.50;;;-1.49;100.00
53719;BME280;39616;48.872;9.390;2023-03-04T07:54:13;99014.38;;;-1.45;100.00
53719;BME280;39616;48.872;9.390;2023-03-04T07:56:43;99004.97;;;-1.54;100.00
53719;BME280;39616;48.872;9.390;2023-03-04T07:59:14;99003.13;;;-1.47;100.00
53719;BME280;39616;48.872;9.390;2023-03-04T08:01:44;98999.22;;;-1.44;100.00
53719;BME280;39616;48.872;9.390;2023-03-04T08:04:14;99004.16;;;-1.41;100.00
53719;BME280;39616;48.872;9.390;2023-03-04T08:06:44;98996.19;;;-1.15;100.00
53719;BME280;39616;48.872;9.390;2023-03-04T08:09:15;98999.47;;;-1.19;100.00
53719;BME280;39616;48.872;9.390;2023-03-04T08:11:45;99007.47;;;-1.19;100.00
53719;BME280;39616;48.872;9.390;2023-03-04T08:14:15;99011.16;;;-1.20;100.00
53719;BME280;39616;48.872;9.390;2023-03-04T08:16:46;99017.91;;;-1.11;100.00
53719;BME280;39616;48.872;9.390;2023-03-04T08:19:16;99013.81;;;-1.01;100.00
53719;BME280;39616;48.872;9.390;2023-03-04T08:21:46;99014.63;;;-0.80;100.00
53719;BME280;39616;48.872;9.390;2023-03-04T08:24:17;99010.31;;;-0.75;100.00
53719;BME280;39616;48.872;9.390;2023-03-04T08:26:49;99023.03;;;-0.70;100.00
53719;BME280;39616;48.872;9.390;2023-03-04T08:29:21;99016.28;;;-0.66;100.00
53719;BME280;39616;48.872;9.390;2023-03-04T08:31:53;99015.00;;;-0.57;100.00
53719;BME280;39616;48.872;9.390;2023-03-04T08:34:26;99021.78;;;-0.47;100.00
53719;BME280;39616;48.872;9.390;2023-03-04T08:36:56;99023.00;;;-0.43;100.00
53719;BME280;39616;48.872;9.390;2023-03-04T08:39:27;99020.28;;;-0.30;100.00
53719;BME280;39616;48.872;9.390;2023-03-04T08:41:57;99018.63;;;-0.25;100.00
53719;BME280;39616;48.872;9.390;2023-03-04T08:44:28;99018.81;;;-0.26;100.00
53719;BME280;39616;48.872;9.390;2023-03-04T08:46:58;99015.16;;;-0.18;100.00
53719;BME280;39616;48.872;9.390;2023-03-04T08:49:28;99012.50;;;-0.38;100.00
53719;BME280;39616;48.872;9.390;2023-03-04T08:51:58;99010.88;;;-0.33;100.00
53719;BME280;39616;48.872;9.390;2023-03-04T08:54:29;99017.81;;;-0.25;100.00
53719;BME280;39616;48.872;9.390;2023-03-04T08:56:59;99020.03;;;-0.15;100.00
53719;BME280;39616;48.872;9.390;2023-03-04T08:59:30;99022.75;;;-0.29;100.00
53719;BME280;39616;48.872;9.390;2023-03-04T09:02:00;99025.84;;;-0.32;100.00
53719;BME280;39616;48.872;9.390;2023-03-04T09:04:30;99031.19;;;-0.45;100.00
53719;BME280;39616;48.872;9.390;2023-03-04T09:07:01;99026.25;;;-0.48;100.00
53719;BME280;39616;48.872;9.390;2023-03-04T09:09:31;99031.41;;;-0.60;100.00
53719;BME280;39616;48.872;9.390;2023-03-04T09:12:02;99033.59;;;-0.30;100.00
53719;BME280;39616;48.872;9.390;2023-03-04T09:14:33;99031.91;;;-0.11;100.00
53719;BME280;39616;48.872;9.390;2023-03-04T09:17:05;99023.31;;;-0.07;100.00
53719;BME280;39616;48.872;9.390;2023-03-04T09:19:36;99028.53;;;0.13;100.00
53719;BME280;39616;48.872;9.390;2023-03-04T09:22:06;99027.97;;;0.11;100.00
53719;BME280;39616;48.872;9.390;2023-03-04T09:24:36;99024.63;;;0.22;100.00
53719;BME280;39616;48.872;9.390;2023-03-04T09:27:08;99023.97;;;0.34;100.00
53719;BME280;39616;48.872;9.390;2023-03-04T09:29:38;99023.47;;;0.43;99.84
53719;BME280;39616;48.872;9.390;2023-03-04T09:32:08;99021.56;;;0.57;98.29
53719;BME280;39616;48.872;9.390;2023-03-04T09:34:39;99018.03;;;0.63;96.05
53719;BME280;39616;48.872;9.390;2023-03-04T09:37:09;99022.09;;;0.66;95.53
53719;BME280;39616;48.872;9.390;2023-03-04T09:39:39;99020.72;;;0.63;96.28
53719;BME280;39616;48.872;9.390;2023-03-04T09:42:26;99019.31;;;0.54;94.41
53719;BME280;39616;48.872;9.390;2023-03-04T09:44:59;99020.78;;;0.50;95.59
53719;BME280;39616;48.872;9.390;2023-03-04T09:47:33;99024.31;;;0.76;96.66
53719;BME280;39616;48.872;9.390;2023-03-04T09:50:09;99018.25;;;0.93;93.61
53719;BME280;39616;48.872;9.390;2023-03-04T09:55:24;99022.50;;;0.69;94.37
53719;BME280;39616;48.872;9.390;2023-03-04T10:00:41;99029.19;;;0.85;90.99
53719;BME280;39616;48.872;9.390;2023-03-04T10:03:17;99029.09;;;0.67;94.17
53719;BME280;39616;48.872;9.390;2023-03-04T10:06:03;99025.78;;;0.71;94.52
53719;BME280;39616;48.872;9.390;2023-03-04T10:08:51;99028.22;;;0.73;92.02
53719;BME280;39616;48.872;9.390;2023-03-04T10:11:31;99030.59;;;0.88;92.67
53719;BME280;39616;48.872;9.390;2023-03-04T10:16:59;99022.84;;;1.55;89.36
53719;BME280;39616;48.872;9.390;2023-03-04T10:19:37;99024.22;;;1.39;85.80
53719;BME280;39616;48.872;9.390;2023-03-04T10:22:22;99016.59;;;1.61;84.77
53719;BME280;39616;48.872;9.390;2023-03-04T10:24:57;99013.88;;;1.24;86.76
53719;BME280;39616;48.872;9.390;2023-03-04T10:27:28;99016.63;;;1.36;86.62
53719;BME280;39616;48.872;9.390;2023-03-04T10:30:02;99007.41;;;1.75;85.85
53719;BME280;39616;48.872;9.390;2023-03-04T10:32:36;99009.41;;;1.80;84.27
53719;BME280;39616;48.872;9.390;2023-03-04T10:35:11;99011.88;;;1.63;83.85
53719;BME280;39616;48.872;9.390;2023-03-04T10:37:43;99016.69;;;1.73;83.52
53719;BME280;39616;48.872;9.390;2023-03-04T10:40:22;99008.53;;;1.67;83.23
53719;BME280;39616;48.872;9.390;2023-03-04T10:42:54;99006.53;;;1.63;84.00
53719;BME280;39616;48.872;9.390;2023-03-04T10:45:29;99009.47;;;1.36;85.41
53719;BME280;39616;48.872;9.390;2023-03-04T10:48:00;99006.28;;;1.46;86.28
53719;BME280;39616;48.872;9.390;2023-03-04T10:50:31;99002.00;;;1.82;85.25
53719;BME280;39616;48.872;9.390;2023-03-04T10:53:02;98997.38;;;1.52;82.32
53719;BME280;39616;48.872;9.390;2023-03-04T10:55:43;98993.72;;;1.65;84.53
53719;BME280;39616;48.872;9.390;2023-03-04T10:58:16;98999.25;;;1.88;83.77
53719;BME280;39616;48.872;9.390;2023-03-04T11:00:59;98992.09;;;2.19;82.18
53719;BME280;39616;48.872;9.390;2023-03-04T11:03:34;98990.53;;;2.11;81.73
53719;BME280;39616;48.872;9.390;2023-03-04T11:06:17;98992.34;;;1.99;80.81
53719;BME280;39616;48.872;9.390;2023-03-04T11:08:56;98988.22;;;2.15;80.73
53719;BME280;39616;48.872;9.390;2023-03-04T11:11:32;98988.31;;;1.72;80.74
53719;BME280;39616;48.872;9.390;2023-03-04T11:14:24;98984.97;;;1.76;80.66
53719;BME280;39616;48.872;9.390;2023-03-04T11:17:16;98976.94;;;1.76;82.66
53719;BME280;39616;48.872;9.390;2023-03-04T11:19:53;98976.19;;;1.87;82.29
53719;BME280;39616;48.872;9.390;2023-03-04T11:22:26;98972.59;;;1.82;81.02
53719;BME280;39616;48.872;9.390;2023-03-04T11:25:28;98977.63;;;1.53;82.71
53719;BME280;39616;48.872;9.390;2023-03-04T11:31:19;98972.13;;;1.85;82.37
53719;BME280;39616;48.872;9.390;2023-03-04T11:33:55;98974.75;;;1.73;81.40
53719;BME280;39616;48.872;9.390;2023-03-04T11:36:56;98971.31;;;1.48;82.53
53719;BME280;39616;48.872;9.390;2023-03-04T11:39:34;98969.97;;;1.57;82.70
53719;BME280;39616;48.872;9.390;2023-03-04T11:42:30;98964.13;;;1.48;83.13
53719;BME280;39616;48.872;9.390;2023-03-04T11:45:11;98962.56;;;1.59;82.35
53719;BME280;39616;48.872;9.390;2023-03-04T11:48:12;98967.44;;;1.62;81.69
53719;BME280;39616;48.872;9.390;2023-03-04T11:56:43;98958.91;;;1.35;81.71
53719;BME280;39616;48.872;9.390;2023-03-04T11:59:33;98953.69;;;1.40;83.24
53719;BME280;39616;48.872;9.390;2023-03-04T12:02:21;98949.56;;;1.44;81.82
53719;BME280;39616;48.872;9.390;2023-03-04T12:10:38;98943.16;;;1.45;80.79
53719;BME280;39616;48.872;9.390;2023-03-04T12:16:07;98926.59;;;1.18;80.53
53719;BME280;39616;48.872;9.390;2023-03-04T12:21:43;98923.63;;;1.26;81.23
53719;BME280;39616;48.872;9.390;2023-03-04T12:29:54;98913.59;;;1.58;79.89
53719;BME280;39616;48.872;9.390;2023-03-04T12:32:57;98908.72;;;1.37;80.89
53719;BME280;39616;48.872;9.390;2023-03-04T12:35:55;98906.69;;;1.51;81.10
53719;BME280;39616;48.872;9.390;2023-03-04T12:44:42;98903.88;;;1.64;80.83
53719;BME280;39616;48.872;9.390;2023-03-04T12:47:26;98894.53;;;1.73;80.36
53719;BME280;39616;48.872;9.390;2023-03-04T12:52:53;98886.88;;;1.40;81.06
53719;BME280;39616;48.872;9.390;2023-03-04T12:55:38;98878.72;;;1.53;81.78
53719;BME280;39616;48.872;9.390;2023-03-04T12:58:20;98882.44;;;1.52;81.52
53719;BME280;39616;48.872;9.390;2023-03-04T13:03:57;98871.31;;;1.55;80.90
53719;BME280;39616;48.872;9.390;2023-03-04T13:06:38;98880.28;;;1.42;80.96
53719;BME280;39616;48.872;9.390;2023-03-04T13:09:25;98875.63;;;1.38;79.79
53719;BME280;39616;48.872;9.390;2023-03-04T13:12:16;98870.84;;;1.40;79.97
53719;BME280;39616;48.872;9.390;2023-03-04T13:17:53;98872.88;;;1.44;79.16
53719;BME280;39616;48.872;9.390;2023-03-04T13:20:33;98869.94;;;1.64;80.10
53719;BME280;39616;48.872;9.390;2023-03-04T13:26:16;98874.84;;;1.67;79.31
53719;BME280;39616;48.872;9.390;2023-03-04T13:32:09;98873.44;;;1.47;79.19
53719;BME280;39616;48.872;9.390;2023-03-04T13:34:51;98869.53;;;1.49;79.65
53719;BME280;39616;48.872;9.390;2023-03-04T13:40:36;98870.88;;;1.22;81.40
53719;BME280;39616;48.872;9.390;2023-03-04T13:43:27;98875.25;;;1.16;81.37
53719;BME280;39616;48.872;9.390;2023-03-04T13:51:38;98886.00;;;1.28;80.68
53719;BME280;39616;48.872;9.390;2023-03-04T13:54:26;98879.97;;;1.32;80.98
53719;BME280;39616;48.872;9.390;2023-03-04T13:59:31;98880.72;;;1.21;80.48
53719;BME280;39616;48.872;9.390;2023-03-04T14:02:29;98877.16;;;1.09;79.91
53719;BME280;39616;48.872;9.390;2023-03-04T14:05:02;98879.91;;;1.20;79.79
53719;BME280;39616;48.872;9.390;2023-03-04T14:07:36;98874.13;;;1.24;79.58
53719;BME280;39616;48.872;9.390;2023-03-04T14:10:23;98879.47;;;1.24;79.93
53719;BME280;39616;48.872;9.390;2023-03-04T14:12:55;98879.69;;;1.22;79.37
53719;BME280;39616;48.872;9.390;2023-03-04T14:15:30;98874.94;;;1.24;79.50
53719;BME280;39616;48.872;9.390;2023-03-04T14:18:03;98869.66;;;1.17;79.55
53719;BME280;39616;48.872;9.390;2023-03-04T14:20:39;98864.19;;;1.12;79.34
53719;BME280;39616;48.872;9.390;2023-03-04T14:23:33;98863.66;;;1.04;79.34
53719;BME280;39616;48.872;9.390;2023-03-04T14:26:12;98856.66;;;1.03;79.29
53719;BME280;39616;48.872;9.390;2023-03-04T14:28:48;98853.78;;;1.04;79.85
53719;BME280;39616;48.872;9.390;2023-03-04T14:31:21;98860.84;;;1.17;79.67
53719;BME280;39616;48.872;9.390;2023-03-04T14:33:54;98851.25;;;1.09;79.07